Aviation Digital Data Service (ADDS)

Output produced by METARs form (1752 UTC 20 January 2019)
found at http://www.aviationweather.gov/metar/data/
 
LDDU 201730Z 07007KT 9999 SCT040 SCT050 08/06 Q1014 NOSIG
TAF LDDU 201725Z 2018/2118 09007KT 9999 BKN040 TX12/2112Z TN07/2021Z 
     PROB30 
     TEMPO 2019/2103 03010KT 
     BECMG 2110/2112 12014KT
       
LDOS 201730Z 24005KT 140V270 9999 SCT013 OVC027 02/00 Q1017
TAF LDOS 201725Z 2018/2118 29006KT 8000 SCT010 OVC030 TX02/2113Z TNM03/2105Z 
     TEMPO 2018/2110 3000 BR BKN005 OVC020 
     BECMG 2110/2112 05006KT
       
LDPL 201730Z 35003KT CAVOK 05/M00 Q1015 NOSIG
TAF LDPL 201725Z 2018/2118 06004KT CAVOK TX06/2113Z TN02/2105Z 
     BECMG 2104/2106 06010KT
       
LDRI 201730Z 35002KT 9999 FEW050 04/M01 Q1015
TAF COR LDRI 201727Z 2018/2118 06006KT CAVOK TX06/2113Z TN03/2105Z 
     PROB40 
     TEMPO 2112/2118 VRB10KT
       
LDSP 201730Z 32003KT 9999 SCT060 08/05 Q1014 NOSIG
TAF LDSP 201725Z 2018/2118 34006KT 9999 BKN030 TX09/2113Z TN06/2106Z 
     PROB40 
     TEMPO 2103/2118 10012KT 5000 RA 
     PROB30 
     TEMPO 2112/2118 -TSRA FEW027CB BKN030
       
LDZD 201730Z VRB02KT 9999 BKN075 04/00 Q1015 NOSIG
TAF LDZD 201725Z 2018/2118 10005KT 9999 BKN030 TX07/2112Z TN03/2107Z 
     BECMG 2103/2105 07008KT 
     PROB40 
     TEMPO 2108/2118 5000 RA 
     PROB30 
     TEMPO 2108/2115 SHRA FEW027TCU BKN030 
     TEMPO 2109/2118 06012KT
       
LDZA 201730Z 16003KT 130V220 9999 OVC027 01/M03 Q1017 NOSIG
TAF LDZA 201725Z 2018/2118 VRB02KT 9999 BKN025 TX02/2113Z TNM04/2105Z 
     PROB40 
     TEMPO 2018/2110 3000 BR BKN010 
     PROB30 
     TEMPO 2022/2109 0300 FZFG VV002